sensor_id;sensor_type;location;lat;lon;timestamp;temperature;humidity
12452;DHT22;6291;48.924;12.204;2023-03-01T00:04:12;0.60;99.90
12452;DHT22;6291;48.924;12.204;2023-03-01T00:09:16;0.40;99.90
12452;DHT22;6291;48.924;12.204;2023-03-01T00:14:19;0.20;99.90
12452;DHT22;6291;48.924;12.204;2023-03-01T00:19:24;0.10;99.90
12452;DHT22;6291;48.924;12.204;2023-03-01T00:24:27;0.10;99.90
12452;DHT22;6291;48.924;12.204;2023-03-01T00:29:30;1.60;99.90
12452;DHT22;6291;48.924;12.204;2023-03-01T00:34:35;0.00;99.90
12452;DHT22;6291;48.924;12.204;2023-03-01T00:39:39;0.30;99.90
12452;DHT22;6291;48.924;12.204;2023-03-01T00:44:42;0.00;99.90
12452;DHT22;6291;48.924;12.204;2023-03-01T00:49:47;0.00;99.90
12452;DHT22;6291;48.924;12.204;2023-03-01T00:54:52;0.10;99.90
12452;DHT22;6291;48.924;12.204;2023-03-01T00:59:55;0.60;99.90
12452;DHT22;6291;48.924;12.204;2023-03-01T01:05:01;0.20;99.90
12452;DHT22;6291;48.924;12.204;2023-03-01T01:10:06;0.20;99.90
12452;DHT22;6291;48.924;12.204;2023-03-01T01:15:10;0.20;99.90
12452;DHT22;6291;48.924;12.204;2023-03-01T01:20:17;0.20;99.90
12452;DHT22;6291;48.924;12.204;2023-03-01T01:25:21;0.10;99.90
12452;DHT22;6291;48.924;12.204;2023-03-01T01:30:26;0.20;99.90
12452;DHT22;6291;48.924;12.204;2023-03-01T01:35:31;0.30;99.90
12452;DHT22;6291;48.924;12.204;2023-03-01T01:40:34;0.30;99.90
12452;DHT22;6291;48.924;12.204;2023-03-01T01:45:45;0.30;99.90
12452;DHT22;6291;48.924;12.204;2023-03-01T01:50:56;0.10;99.90
12452;DHT22;6291;48.924;12.204;2023-03-01T01:56:02;0.00;99.90
12452;DHT22;6291;48.924;12.204;2023-03-01T02:01:07;-0.10;99.90
12452;DHT22;6291;48.924;12.204;2023-03-01T02:06:19;-0.20;99.90
12452;DHT22;6291;48.924;12.204;2023-03-01T02:11:25;-0.30;99.90
12452;DHT22;6291;48.924;12.204;2023-03-01T02:16:29;-0.40;99.90
12452;DHT22;6291;48.924;12.204;2023-03-01T02:21:41;-0.10;99.90
12452;DHT22;6291;48.924;12.204;2023-03-01T02:26:52;-0.60;99.90
12452;DHT22;6291;48.924;12.204;2023-03-01T02:32:00;-0.70;99.90
12452;DHT22;6291;48.924;12.204;2023-03-01T02:37:08;-0.70;99.90
12452;DHT22;6291;48.924;12.204;2023-03-01T02:42:16;-0.70;99.90
12452;DHT22;6291;48.924;12.204;2023-03-01T02:47:22;-0.80;99.90
12452;DHT22;6291;48.924;12.204;2023-03-01T02:52:43;-0.70;99.90
12452;DHT22;6291;48.924;12.204;2023-03-01T02:57:48;-0.70;99.90
12452;DHT22;6291;48.924;12.204;2023-03-01T03:02:55;-0.80;99.90
12452;DHT22;6291;48.924;12.204;2023-03-01T03:08:02;-0.90;99.90
12452;DHT22;6291;48.924;12.204;2023-03-01T03:13:12;-0.80;99.90
12452;DHT22;6291;48.924;12.204;2023-03-01T03:18:18;-0.80;99.90
12452;DHT22;6291;48.924;12.204;2023-03-01T03:23:22;-0.90;99.90
12452;DHT22;6291;48.924;12.204;2023-03-01T03:28:25;-0.90;99.90
12452;DHT22;6291;48.924;12.204;2023-03-01T03:33:30;-1.00;99.90
12452;DHT22;6291;48.924;12.204;2023-03-01T03:38:34;-0.70;99.90
12452;DHT22;6291;48.924;12.204;2023-03-01T03:43:39;-1.10;99.90
12452;DHT22;6291;48.924;12.204;2023-03-01T03:48:46;-1.10;99.90
12452;DHT22;6291;48.924;12.204;2023-03-01T03:53:49;-1.10;99.90
12452;DHT22;6291;48.924;12.204;2023-03-01T03:58:52;-0.90;99.90
12452;DHT22;6291;48.924;12.204;2023-03-01T04:03:57;-0.70;99.90
12452;DHT22;6291;48.924;12.204;2023-03-01T04:09:06;-0.70;99.90
12452;DHT22;6291;48.924;12.204;2023-03-01T04:14:09;-1.00;99.90
12452;DHT22;6291;48.924;12.204;2023-03-01T04:19:14;-1.10;99.90
12452;DHT22;6291;48.924;12.204;2023-03-01T04:24:18;-1.20;99.90
12452;DHT22;6291;48.924;12.204;2023-03-01T04:29:21;-1.10;99.90
12452;DHT22;6291;48.924;12.204;2023-03-01T04:34:26;-1.30;99.90
12452;DHT22;6291;48.924;12.204;2023-03-01T04:39:29;-1.30;99.90
12452;DHT22;6291;48.924;12.204;2023-03-01T04:44:32;-1.40;99.90
12452;DHT22;6291;48.924;12.204;2023-03-01T04:49:37;-1.40;99.90
12452;DHT22;6291;48.924;12.204;2023-03-01T04:54:41;-1.50;99.90
12452;DHT22;6291;48.924;12.204;2023-03-01T04:59:44;-1.00;99.90
12452;DHT22;6291;48.924;12.204;2023-03-01T05:04:49;-1.60;99.90
12452;DHT22;6291;48.924;12.204;2023-03-01T05:09:53;-1.50;99.90
12452;DHT22;6291;48.924;12.204;2023-03-01T05:14:56;-1.80;99.90
12452;DHT22;6291;48.924;12.204;2023-03-01T05:20:01;-1.80;99.90
12452;DHT22;6291;48.924;12.204;2023-03-01T05:25:09;-1.90;99.90
12452;DHT22;6291;48.924;12.204;2023-03-01T05:30:13;-1.70;99.90
12452;DHT22;6291;48.924;12.204;2023-03-01T05:35:18;-1.90;99.90
12452;DHT22;6291;48.924;12.204;2023-03-01T05:40:23;-2.00;99.90
12452;DHT22;6291;48.924;12.204;2023-03-01T05:45:27;-2.00;99.90
12452;DHT22;6291;48.924;12.204;2023-03-01T05:50:35;-2.10;99.90
12452;DHT22;6291;48.924;12.204;2023-03-01T05:55:41;-2.10;99.90
12452;DHT22;6291;48.924;12.204;2023-03-01T06:00:46;-2.20;99.90
12452;DHT22;6291;48.924;12.204;2023-03-01T06:05:55;-2.20;99.90
12452;DHT22;6291;48.924;12.204;2023-03-01T06:10:59;-2.20;99.90
12452;DHT22;6291;48.924;12.204;2023-03-01T06:16:04;-2.20;99.90
12452;DHT22;6291;48.924;12.204;2023-03-01T06:21:09;-2.10;99.90
12452;DHT22;6291;48.924;12.204;2023-03-01T06:26:13;-2.20;99.90
12452;DHT22;6291;48.924;12.204;2023-03-01T06:31:16;-2.10;99.90
12452;DHT22;6291;48.924;12.204;2023-03-01T06:36:21;-2.10;99.90
12452;DHT22;6291;48.924;12.204;2023-03-01T06:41:24;-1.90;99.90
12452;DHT22;6291;48.924;12.204;2023-03-01T06:46:27;-1.90;99.90
12452;DHT22;6291;48.924;12.204;2023-03-01T06:51:32;-1.70;99.90
12452;DHT22;6291;48.924;12.204;2023-03-01T06:56:36;-1.60;99.90
12452;DHT22;6291;48.924;12.204;2023-03-01T07:01:39;-1.50;99.90
12452;DHT22;6291;48.924;12.204;2023-03-01T07:06:45;-1.30;99.90
12452;DHT22;6291;48.924;12.204;2023-03-01T07:11:57;-1.10;99.90
12452;DHT22;6291;48.924;12.204;2023-03-01T07:17:00;-0.80;99.90
12452;DHT22;6291;48.924;12.204;2023-03-01T07:22:05;-0.70;99.90
12452;DHT22;6291;48.924;12.204;2023-03-01T07:27:09;-0.50;99.90
12452;DHT22;6291;48.924;12.204;2023-03-01T07:32:13;-0.40;99.90
12452;DHT22;6291;48.924;12.204;2023-03-01T07:37:18;-0.20;99.90
12452;DHT22;6291;48.924;12.204;2023-03-01T07:42:21;0.10;99.90
12452;DHT22;6291;48.924;12.204;2023-03-01T07:47:24;0.50;99.90
12452;DHT22;6291;48.924;12.204;2023-03-01T07:52:29;0.80;99.90
12452;DHT22;6291;48.924;12.204;2023-03-01T07:57:32;1.60;99.90
12452;DHT22;6291;48.924;12.204;2023-03-01T08:02:35;2.40;99.90
12452;DHT22;6291;48.924;12.204;2023-03-01T08:07:40;3.60;99.90
12452;DHT22;6291;48.924;12.204;2023-03-01T08:12:43;4.50;99.90
12452;DHT22;6291;48.924;12.204;2023-03-01T08:17:49;4.90;99.90
12452;DHT22;6291;48.924;12.204;2023-03-01T08:22:54;5.50;99.90
12452;DHT22;6291;48.924;12.204;2023-03-01T08:27:57;6.50;99.90
12452;DHT22;6291;48.924;12.204;2023-03-01T08:33:01;6.90;99.90
12452;DHT22;6291;48.924;12.204;2023-03-01T08:38:05;6.80;99.90
12452;DHT22;6291;48.924;12.204;2023-03-01T08:43:08;7.70;99.90
12452;DHT22;6291;48.924;12.204;2023-03-01T08:48:12;7.80;99.90
12452;DHT22;6291;48.924;12.204;2023-03-01T08:53:17;8.80;99.90
12452;DHT22;6291;48.924;12.204;2023-03-01T08:58:20;9.00;99.90
12452;DHT22;6291;48.924;12.204;2023-03-01T09:03:23;10.00;99.90
12452;DHT22;6291;48.924;12.204;2023-03-01T09:08:28;9.60;99.90
12452;DHT22;6291;48.924;12.204;2023-03-01T09:13:32;9.60;99.90
12452;DHT22;6291;48.924;12.204;2023-03-01T09:18:35;10.10;99.90
12452;DHT22;6291;48.924;12.204;2023-03-01T09:23:42;9.80;99.90
12452;DHT22;6291;48.924;12.204;2023-03-01T09:28:46;10.10;99.90
12452;DHT22;6291;48.924;12.204;2023-03-01T09:33:52;11.20;98.20
12452;DHT22;6291;48.924;12.204;2023-03-01T09:38:57;10.70;99.90
12452;DHT22;6291;48.924;12.204;2023-03-01T09:44:04;11.00;99.70
12452;DHT22;6291;48.924;12.204;2023-03-01T09:49:14;11.70;95.40
12452;DHT22;6291;48.924;12.204;2023-03-01T09:54:22;12.50;89.70
12452;DHT22;6291;48.924;12.204;2023-03-01T09:59:29;11.30;94.50
12452;DHT22;6291;48.924;12.204;2023-03-01T10:04:43;11.80;92.40
12452;DHT22;6291;48.924;12.204;2023-03-01T10:09:49;12.00;88.80
12452;DHT22;6291;48.924;12.204;2023-03-01T10:14:57;12.70;83.00
12452;DHT22;6291;48.924;12.204;2023-03-01T10:20:24;12.90;79.00
12452;DHT22;6291;48.924;12.204;2023-03-01T10:25:42;13.00;80.40
12452;DHT22;6291;48.924;12.204;2023-03-01T10:30:47;13.30;78.20
12452;DHT22;6291;48.924;12.204;2023-03-01T10:35:51;14.70;62.90
12452;DHT22;6291;48.924;12.204;2023-03-01T10:40:57;14.40;63.70
12452;DHT22;6291;48.924;12.204;2023-03-01T10:46:01;14.40;66.40
12452;DHT22;6291;48.924;12.204;2023-03-01T10:51:05;14.60;63.80
12452;DHT22;6291;48.924;12.204;2023-03-01T10:56:11;11.10;84.20
12452;DHT22;6291;48.924;12.204;2023-03-01T11:01:25;13.80;66.30
12452;DHT22;6291;48.924;12.204;2023-03-01T11:06:29;14.50;57.20
12452;DHT22;6291;48.924;12.204;2023-03-01T11:11:35;15.10;51.00
12452;DHT22;6291;48.924;12.204;2023-03-01T11:16:39;15.20;51.40
12452;DHT22;6291;48.924;12.204;2023-03-01T11:21:51;15.60;48.10
12452;DHT22;6291;48.924;12.204;2023-03-01T11:27:01;16.00;43.70
12452;DHT22;6291;48.924;12.204;2023-03-01T11:32:08;15.10;49.90
12452;DHT22;6291;48.924;12.204;2023-03-01T11:37:26;15.60;46.70
12452;DHT22;6291;48.924;12.204;2023-03-01T11:42:46;16.00;43.20
12452;DHT22;6291;48.924;12.204;2023-03-01T11:48:10;16.70;35.10
12452;DHT22;6291;48.924;12.204;2023-03-01T11:53:30;17.70;29.10
12452;DHT22;6291;48.924;12.204;2023-03-01T12:04:44;17.40;30.10
12452;DHT22;6291;48.924;12.204;2023-03-01T12:10:02;17.50;28.30
12452;DHT22;6291;48.924;12.204;2023-03-01T12:15:35;17.90;26.50
12452;DHT22;6291;48.924;12.204;2023-03-01T12:20:47;18.10;25.90
12452;DHT22;6291;48.924;12.204;2023-03-01T12:25:58;18.10;25.10
12452;DHT22;6291;48.924;12.204;2023-03-01T12:31:23;17.90;23.60
12452;DHT22;6291;48.924;12.204;2023-03-01T12:36:53;17.30;27.40
12452;DHT22;6291;48.924;12.204;2023-03-01T12:42:06;17.40;28.30
12452;DHT22;6291;48.924;12.204;2023-03-01T12:47:21;18.00;26.10
12452;DHT22;6291;48.924;12.204;2023-03-01T12:52:35;17.30;26.30
12452;DHT22;6291;48.924;12.204;2023-03-01T12:57:42;17.60;26.60
12452;DHT22;6291;48.924;12.204;2023-03-01T13:02:56;17.80;26.00
12452;DHT22;6291;48.924;12.204;2023-03-01T13:08:07;17.90;23.80
12452;DHT22;6291;48.924;12.204;2023-03-01T13:13:18;17.90;24.80
12452;DHT22;6291;48.924;12.204;2023-03-01T13:18:31;16.70;24.20
12452;DHT22;6291;48.924;12.204;2023-03-01T13:23:37;18.00;24.00
12452;DHT22;6291;48.924;12.204;2023-03-01T13:28:52;17.30;26.60
12452;DHT22;6291;48.924;12.204;2023-03-01T13:33:59;17.00;27.50
12452;DHT22;6291;48.924;12.204;2023-03-01T13:39:04;16.90;28.00
12452;DHT22;6291;48.924;12.204;2023-03-01T13:44:12;17.10;28.70
12452;DHT22;6291;48.924;12.204;2023-03-01T13:49:20;18.20;21.50
12452;DHT22;6291;48.924;12.204;2023-03-01T13:54:28;18.60;17.30
12452;DHT22;6291;48.924;12.204;2023-03-01T13:59:32;18.30;19.70
12452;DHT22;6291;48.924;12.204;2023-03-01T14:04:37;18.30;18.80
12452;DHT22;6291;48.924;12.204;2023-03-01T14:09:42;17.20;26.30
12452;DHT22;6291;48.924;12.204;2023-03-01T14:14:52;17.80;23.40
12452;DHT22;6291;48.924;12.204;2023-03-01T14:20:02;18.10;19.90
12452;DHT22;6291;48.924;12.204;2023-03-01T14:25:19;18.10;20.90
12452;DHT22;6291;48.924;12.204;2023-03-01T14:30:26;17.60;23.20
12452;DHT22;6291;48.924;12.204;2023-03-01T14:35:33;18.10;20.40
12452;DHT22;6291;48.924;12.204;2023-03-01T14:40:37;17.60;22.30
12452;DHT22;6291;48.924;12.204;2023-03-01T14:45:47;17.40;25.10
12452;DHT22;6291;48.924;12.204;2023-03-01T14:50:52;17.80;20.50
12452;DHT22;6291;48.924;12.204;2023-03-01T14:56:00;17.90;20.80
12452;DHT22;6291;48.924;12.204;2023-03-01T15:01:05;17.20;24.50
12452;DHT22;6291;48.924;12.204;2023-03-01T15:06:15;16.80;27.60
12452;DHT22;6291;48.924;12.204;2023-03-01T15:11:22;16.60;27.50
12452;DHT22;6291;48.924;12.204;2023-03-01T15:16:28;16.90;27.90
12452;DHT22;6291;48.924;12.204;2023-03-01T15:21:35;17.30;22.90
12452;DHT22;6291;48.924;12.204;2023-03-01T15:26:41;17.20;22.90
12452;DHT22;6291;48.924;12.204;2023-03-01T15:31:54;16.30;29.90
12452;DHT22;6291;48.924;12.204;2023-03-01T15:37:01;16.10;30.80
12452;DHT22;6291;48.924;12.204;2023-03-01T15:42:07;15.30;36.40
12452;DHT22;6291;48.924;12.204;2023-03-01T15:47:26;14.60;45.90
12452;DHT22;6291;48.924;12.204;2023-03-01T15:52:34;14.10;51.60
12452;DHT22;6291;48.924;12.204;2023-03-01T15:57:41;14.10;47.20
12452;DHT22;6291;48.924;12.204;2023-03-01T16:02:44;13.40;50.00
12452;DHT22;6291;48.924;12.204;2023-03-01T16:07:49;13.20;53.50
12452;DHT22;6291;48.924;12.204;2023-03-01T16:12:53;12.80;56.30
12452;DHT22;6291;48.924;12.204;2023-03-01T16:17:57;12.10;70.60
12452;DHT22;6291;48.924;12.204;2023-03-01T16:23:04;11.00;75.30
12452;DHT22;6291;48.924;12.204;2023-03-01T16:28:08;9.70;76.90
12452;DHT22;6291;48.924;12.204;2023-03-01T16:33:12;9.00;99.90
12452;DHT22;6291;48.924;12.204;2023-03-01T16:38:36;8.40;91.30
12452;DHT22;6291;48.924;12.204;2023-03-01T16:43:40;8.00;93.50
12452;DHT22;6291;48.924;12.204;2023-03-01T16:48:44;7.50;92.50
12452;DHT22;6291;48.924;12.204;2023-03-01T16:53:49;7.30;97.20
12452;DHT22;6291;48.924;12.204;2023-03-01T16:58:53;7.00;98.80
12452;DHT22;6291;48.924;12.204;2023-03-01T17:03:56;6.80;99.90
12452;DHT22;6291;48.924;12.204;2023-03-01T17:09:01;6.50;99.90
12452;DHT22;6291;48.924;12.204;2023-03-01T17:14:04;6.30;99.90
12452;DHT22;6291;48.924;12.204;2023-03-01T17:19:08;6.20;99.90
12452;DHT22;6291;48.924;12.204;2023-03-01T17:24:12;6.00;99.90
12452;DHT22;6291;48.924;12.204;2023-03-01T17:29:16;5.90;99.90
12452;DHT22;6291;48.924;12.204;2023-03-01T17:34:22;5.70;99.90
12452;DHT22;6291;48.924;12.204;2023-03-01T17:39:28;5.60;99.90
12452;DHT22;6291;48.924;12.204;2023-03-01T17:44:37;5.50;99.90
12452;DHT22;6291;48.924;12.204;2023-03-01T17:49:42;5.50;99.90
12452;DHT22;6291;48.924;12.204;2023-03-01T17:54:46;5.40;99.90
12452;DHT22;6291;48.924;12.204;2023-03-01T17:59:50;5.20;99.90
12452;DHT22;6291;48.924;12.204;2023-03-01T18:04:57;5.20;99.90
12452;DHT22;6291;48.924;12.204;2023-03-01T18:10:03;5.20;99.90
12452;DHT22;6291;48.924;12.204;2023-03-01T18:15:07;5.10;99.90
12452;DHT22;6291;48.924;12.204;2023-03-01T18:20:11;5.00;99.90
12452;DHT22;6291;48.924;12.204;2023-03-01T18:25:18;4.80;99.90
12452;DHT22;6291;48.924;12.204;2023-03-01T18:30:21;4.80;99.90
12452;DHT22;6291;48.924;12.204;2023-03-01T18:35:24;4.70;99.90
12452;DHT22;6291;48.924;12.204;2023-03-01T18:40:30;4.70;99.90
12452;DHT22;6291;48.924;12.204;2023-03-01T18:45:34;4.60;99.90
12452;DHT22;6291;48.924;12.204;2023-03-01T18:50:38;4.40;99.90
12452;DHT22;6291;48.924;12.204;2023-03-01T18:55:42;4.30;99.90
12452;DHT22;6291;48.924;12.204;2023-03-01T19:00:46;4.20;99.90
12452;DHT22;6291;48.924;12.204;2023-03-01T19:05:49;4.10;99.90
12452;DHT22;6291;48.924;12.204;2023-03-01T19:10:58;3.90;99.90
12452;DHT22;6291;48.924;12.204;2023-03-01T19:16:03;3.80;99.90
12452;DHT22;6291;48.924;12.204;2023-03-01T19:21:09;3.70;99.90
12452;DHT22;6291;48.924;12.204;2023-03-01T19:26:16;3.70;99.90
12452;DHT22;6291;48.924;12.204;2023-03-01T19:31:22;3.60;99.90
12452;DHT22;6291;48.924;12.204;2023-03-01T19:36:26;3.70;99.90
12452;DHT22;6291;48.924;12.204;2023-03-01T19:41:35;5.30;99.90
12452;DHT22;6291;48.924;12.204;2023-03-01T19:46:39;3.50;99.90
12452;DHT22;6291;48.924;12.204;2023-03-01T19:51:42;3.50;99.90
12452;DHT22;6291;48.924;12.204;2023-03-01T19:56:48;3.60;99.90
12452;DHT22;6291;48.924;12.204;2023-03-01T20:01:53;3.60;99.90
12452;DHT22;6291;48.924;12.204;2023-03-01T20:06:57;3.50;99.90
12452;DHT22;6291;48.924;12.204;2023-03-01T20:12:01;3.50;99.90
12452;DHT22;6291;48.924;12.204;2023-03-01T20:17:05;3.40;99.90
12452;DHT22;6291;48.924;12.204;2023-03-01T20:22:08;3.40;99.90
12452;DHT22;6291;48.924;12.204;2023-03-01T20:27:17;3.40;99.90
12452;DHT22;6291;48.924;12.204;2023-03-01T20:32:20;3.30;99.90
12452;DHT22;6291;48.924;12.204;2023-03-01T20:37:25;3.20;99.90
12452;DHT22;6291;48.924;12.204;2023-03-01T20:42:30;3.20;99.90
12452;DHT22;6291;48.924;12.204;2023-03-01T20:47:34;3.20;99.90
12452;DHT22;6291;48.924;12.204;2023-03-01T20:52:37;3.10;99.90
12452;DHT22;6291;48.924;12.204;2023-03-01T20:57:50;3.10;99.90
12452;DHT22;6291;48.924;12.204;2023-03-01T21:02:54;3.10;99.90
12452;DHT22;6291;48.924;12.204;2023-03-01T21:07:57;3.10;99.90
12452;DHT22;6291;48.924;12.204;2023-03-01T21:13:05;3.00;99.90
12452;DHT22;6291;48.924;12.204;2023-03-01T21:18:08;3.00;99.90
12452;DHT22;6291;48.924;12.204;2023-03-01T21:23:12;2.90;99.90
12452;DHT22;6291;48.924;12.204;2023-03-01T21:28:17;2.80;99.90
12452;DHT22;6291;48.924;12.204;2023-03-01T21:33:20;2.70;99.90
12452;DHT22;6291;48.924;12.204;2023-03-01T21:38:24;2.70;99.90
12452;DHT22;6291;48.924;12.204;2023-03-01T21:43:31;2.50;99.90
12452;DHT22;6291;48.924;12.204;2023-03-01T21:48:34;2.40;99.90
12452;DHT22;6291;48.924;12.204;2023-03-01T21:53:40;2.40;99.90
12452;DHT22;6291;48.924;12.204;2023-03-01T21:58:44;2.30;99.90
12452;DHT22;6291;48.924;12.204;2023-03-01T22:03:48;2.40;99.90
12452;DHT22;6291;48.924;12.204;2023-03-01T22:08:56;2.30;99.90
12452;DHT22;6291;48.924;12.204;2023-03-01T22:14:01;2.30;99.90
12452;DHT22;6291;48.924;12.204;2023-03-01T22:19:06;2.30;99.90
12452;DHT22;6291;48.924;12.204;2023-03-01T22:24:10;2.30;99.90
12452;DHT22;6291;48.924;12.204;2023-03-01T22:29:18;2.20;99.90
12452;DHT22;6291;48.924;12.204;2023-03-01T22:34:21;2.20;99.90
12452;DHT22;6291;48.924;12.204;2023-03-01T22:39:25;2.00;99.90
12452;DHT22;6291;48.924;12.204;2023-03-01T22:44:29;1.90;99.90
12452;DHT22;6291;48.924;12.204;2023-03-01T22:49:33;1.90;99.90
12452;DHT22;6291;48.924;12.204;2023-03-01T22:54:36;1.70;99.90
12452;DHT22;6291;48.924;12.204;2023-03-01T22:59:41;1.80;99.90
12452;DHT22;6291;48.924;12.204;2023-03-01T23:04:44;1.50;99.90
12452;DHT22;6291;48.924;12.204;2023-03-01T23:09:49;1.50;99.90
12452;DHT22;6291;48.924;12.204;2023-03-01T23:14:54;1.50;99.90
12452;DHT22;6291;48.924;12.204;2023-03-01T23:19:57;1.40;99.90
12452;DHT22;6291;48.924;12.204;2023-03-01T23:25:00;1.20;99.90
12452;DHT22;6291;48.924;12.204;2023-03-01T23:30:06;1.20;99.90
12452;DHT22;6291;48.924;12.204;2023-03-01T23:35:10;1.20;99.90
12452;DHT22;6291;48.924;12.204;2023-03-01T23:40:13;1.30;99.90
12452;DHT22;6291;48.924;12.204;2023-03-01T23:45:19;1.30;99.90
12452;DHT22;6291;48.924;12.204;2023-03-01T23:50:22;1.20;99.90
12452;DHT22;6291;48.924;12.204;2023-03-01T23:55:27;1.10;99.90
